sensor_id;sensor_type;location;lat;lon;timestamp;pressure;altitude;pressure_sealevel;temperature;humidity
13593;BME280;6867;50.998;4.250;2022-10-30T00:00:08;101398.59;;;19.48;66.31
13593;BME280;6867;50.998;4.250;2022-10-30T00:02:37;101393.31;;;19.41;66.50
13593;BME280;6867;50.998;4.250;2022-10-30T00:05:04;101397.69;;;19.42;66.59
13593;BME280;6867;50.998;4.250;2022-10-30T00:07:32;101392.72;;;19.39;66.58
13593;BME280;6867;50.998;4.250;2022-10-30T00:09:58;101383.94;;;19.32;66.34
13593;BME280;6867;50.998;4.250;2022-10-30T00:12:25;101396.16;;;19.30;66.50
13593;BME280;6867;50.998;4.250;2022-10-30T00:14:53;101391.41;;;19.20;66.59
13593;BME280;6867;50.998;4.250;2022-10-30T00:17:22;101389.75;;;19.19;66.73
13593;BME280;6867;50.998;4.250;2022-10-30T00:19:48;101396.94;;;19.08;66.81
13593;BME280;6867;50.998;4.250;2022-10-30T00:22:15;101394.69;;;19.05;66.95
13593;BME280;6867;50.998;4.250;2022-10-30T00:24:42;101397.84;;;18.97;67.18
13593;BME280;6867;50.998;4.250;2022-10-30T00:27:11;101395.84;;;18.92;67.31
13593;BME280;6867;50.998;4.250;2022-10-30T00:29:37;101399.00;;;18.84;67.53
13593;BME280;6867;50.998;4.250;2022-10-30T00:32:08;101402.31;;;18.86;67.65
13593;BME280;6867;50.998;4.250;2022-10-30T00:34:36;101403.53;;;18.79;67.83
13593;BME280;6867;50.998;4.250;2022-10-30T00:37:03;101396.69;;;18.76;68.13
13593;BME280;6867;50.998;4.250;2022-10-30T00:39:29;101403.56;;;18.67;68.32
13593;BME280;6867;50.998;4.250;2022-10-30T00:41:56;101410.00;;;18.61;68.32
13593;BME280;6867;50.998;4.250;2022-10-30T00:44:35;101406.69;;;18.59;68.49
13593;BME280;6867;50.998;4.250;2022-10-30T00:47:05;101398.94;;;18.51;68.38
13593;BME280;6867;50.998;4.250;2022-10-30T00:49:42;101411.28;;;18.41;69.00
13593;BME280;6867;50.998;4.250;2022-10-30T00:52:15;101409.66;;;18.40;69.11
13593;BME280;6867;50.998;4.250;2022-10-30T00:54:45;101409.66;;;18.40;69.16
13593;BME280;6867;50.998;4.250;2022-10-30T00:57:14;101413.31;;;18.34;69.37
13593;BME280;6867;50.998;4.250;2022-10-30T00:59:41;101416.78;;;18.30;69.49
13593;BME280;6867;50.998;4.250;2022-10-30T01:02:11;101417.03;;;18.28;69.40
13593;BME280;6867;50.998;4.250;2022-10-30T01:04:42;101418.00;;;18.22;69.46
13593;BME280;6867;50.998;4.250;2022-10-30T01:07:14;101426.22;;;18.10;69.94
13593;BME280;6867;50.998;4.250;2022-10-30T01:09:44;101403.78;;;18.03;70.19
13593;BME280;6867;50.998;4.250;2022-10-30T01:12:15;101420.88;;;17.52;71.94
13593;BME280;6867;50.998;4.250;2022-10-30T01:14:44;101426.88;;;17.30;72.68
13593;BME280;6867;50.998;4.250;2022-10-30T01:20:21;101417.09;;;17.53;72.05
13593;BME280;6867;50.998;4.250;2022-10-30T01:22:58;101420.88;;;17.40;72.57
13593;BME280;6867;50.998;4.250;2022-10-30T01:25:47;101420.88;;;17.40;72.69
13593;BME280;6867;50.998;4.250;2022-10-30T01:28:32;101413.81;;;17.39;72.71
13593;BME280;6867;50.998;4.250;2022-10-30T01:31:15;101433.75;;;17.21;73.43
13593;BME280;6867;50.998;4.250;2022-10-30T01:34:01;101429.50;;;17.25;73.61
13593;BME280;6867;50.998;4.250;2022-10-30T01:36:39;101430.81;;;17.23;73.82
13593;BME280;6867;50.998;4.250;2022-10-30T01:39:11;101432.66;;;17.22;73.92
13593;BME280;6867;50.998;4.250;2022-10-30T01:41:41;101428.31;;;17.21;74.11
13593;BME280;6867;50.998;4.250;2022-10-30T01:44:11;101422.31;;;17.19;74.11
13593;BME280;6867;50.998;4.250;2022-10-30T01:46:48;101429.97;;;17.22;74.47
13593;BME280;6867;50.998;4.250;2022-10-30T01:49:32;101412.50;;;17.53;73.52
13593;BME280;6867;50.998;4.250;2022-10-30T01:52:08;101399.00;;;17.58;72.72
13593;BME280;6867;50.998;4.250;2022-10-30T01:54:44;101402.00;;;17.33;73.17
13593;BME280;6867;50.998;4.250;2022-10-30T01:57:19;101407.78;;;17.25;73.55
13593;BME280;6867;50.998;4.250;2022-10-30T01:59:52;101408.50;;;17.32;73.47
13593;BME280;6867;50.998;4.250;2022-10-30T02:02:21;101397.97;;;17.48;73.28
13593;BME280;6867;50.998;4.250;2022-10-30T02:04:49;101412.25;;;17.55;73.10
13593;BME280;6867;50.998;4.250;2022-10-30T02:07:17;101409.88;;;17.58;73.04
13593;BME280;6867;50.998;4.250;2022-10-30T02:09:44;101418.41;;;17.27;73.83
13593;BME280;6867;50.998;4.250;2022-10-30T02:12:14;101428.09;;;17.23;74.31
13593;BME280;6867;50.998;4.250;2022-10-30T02:14:43;101430.47;;;17.31;74.49
13593;BME280;6867;50.998;4.250;2022-10-30T02:17:12;101409.31;;;17.56;73.63
13593;BME280;6867;50.998;4.250;2022-10-30T02:19:38;101408.81;;;17.59;73.37
13593;BME280;6867;50.998;4.250;2022-10-30T02:22:08;101398.88;;;17.65;73.11
13593;BME280;6867;50.998;4.250;2022-10-30T02:24:35;101395.56;;;17.63;72.99
13593;BME280;6867;50.998;4.250;2022-10-30T02:27:02;101395.13;;;17.54;72.99
13593;BME280;6867;50.998;4.250;2022-10-30T02:29:29;101406.81;;;17.55;72.87
13593;BME280;6867;50.998;4.250;2022-10-30T02:31:55;101402.53;;;17.59;72.58
13593;BME280;6867;50.998;4.250;2022-10-30T02:34:22;101406.09;;;17.59;72.73
13593;BME280;6867;50.998;4.250;2022-10-30T02:36:50;101401.25;;;17.61;72.58
13593;BME280;6867;50.998;4.250;2022-10-30T02:39:18;101415.56;;;17.57;72.68
13593;BME280;6867;50.998;4.250;2022-10-30T02:41:45;101408.47;;;17.56;72.35
13593;BME280;6867;50.998;4.250;2022-10-30T02:44:12;101409.88;;;17.58;72.53
13593;BME280;6867;50.998;4.250;2022-10-30T02:46:42;101420.28;;;17.50;72.65
13593;BME280;6867;50.998;4.250;2022-10-30T02:49:08;101422.19;;;17.49;72.83
13593;BME280;6867;50.998;4.250;2022-10-30T02:51:35;101419.22;;;17.51;72.70
13593;BME280;6867;50.998;4.250;2022-10-30T02:54:02;101424.06;;;17.49;72.79
13593;BME280;6867;50.998;4.250;2022-10-30T02:56:30;101425.97;;;17.48;72.79
13593;BME280;6867;50.998;4.250;2022-10-30T02:58:59;101419.47;;;17.49;72.78
13593;BME280;6867;50.998;4.250;2022-10-30T03:01:26;101420.75;;;17.47;72.83
13593;BME280;6867;50.998;4.250;2022-10-30T03:03:53;101412.75;;;17.40;73.01
13593;BME280;6867;50.998;4.250;2022-10-30T03:06:19;101421.25;;;17.43;73.01
13593;BME280;6867;50.998;4.250;2022-10-30T03:08:46;101414.63;;;17.39;72.96
13593;BME280;6867;50.998;4.250;2022-10-30T03:11:14;101413.44;;;17.35;72.96
13593;BME280;6867;50.998;4.250;2022-10-30T03:13:43;101416.16;;;17.35;72.86
13593;BME280;6867;50.998;4.250;2022-10-30T03:16:12;101421.81;;;17.34;73.08
13593;BME280;6867;50.998;4.250;2022-10-30T03:18:39;101425.84;;;17.31;73.37
13593;BME280;6867;50.998;4.250;2022-10-30T03:21:08;101418.53;;;17.32;73.43
13593;BME280;6867;50.998;4.250;2022-10-30T03:23:35;101419.47;;;17.26;73.62
13593;BME280;6867;50.998;4.250;2022-10-30T03:26:03;101412.84;;;17.22;73.70
13593;BME280;6867;50.998;4.250;2022-10-30T03:28:31;101409.66;;;17.25;73.48
13593;BME280;6867;50.998;4.250;2022-10-30T03:31:00;101405.06;;;17.25;73.63
13593;BME280;6867;50.998;4.250;2022-10-30T03:33:27;101392.66;;;17.17;73.31
13593;BME280;6867;50.998;4.250;2022-10-30T03:35:54;101390.09;;;17.11;73.42
13593;BME280;6867;50.998;4.250;2022-10-30T03:38:20;101399.41;;;17.15;73.51
13593;BME280;6867;50.998;4.250;2022-10-30T03:40:47;101393.38;;;17.13;73.49
13593;BME280;6867;50.998;4.250;2022-10-30T03:43:14;101401.31;;;17.14;73.37
13593;BME280;6867;50.998;4.250;2022-10-30T03:45:45;101398.34;;;17.16;73.54
13593;BME280;6867;50.998;4.250;2022-10-30T03:48:15;101389.47;;;17.09;73.50
13593;BME280;6867;50.998;4.250;2022-10-30T03:50:43;101393.59;;;17.00;73.49
13593;BME280;6867;50.998;4.250;2022-10-30T03:53:10;101390.06;;;16.99;73.36
13593;BME280;6867;50.998;4.250;2022-10-30T03:55:37;101391.97;;;16.99;73.54
13593;BME280;6867;50.998;4.250;2022-10-30T03:58:04;101393.03;;;16.98;73.51
13593;BME280;6867;50.998;4.250;2022-10-30T04:00:32;101389.81;;;17.01;73.70
13593;BME280;6867;50.998;4.250;2022-10-30T04:02:59;101396.56;;;16.98;73.69
13593;BME280;6867;50.998;4.250;2022-10-30T04:05:27;101397.03;;;16.95;73.59
13593;BME280;6867;50.998;4.250;2022-10-30T04:07:55;101384.75;;;16.92;73.60
13593;BME280;6867;50.998;4.250;2022-10-30T04:10:22;101396.66;;;16.91;73.67
13593;BME280;6867;50.998;4.250;2022-10-30T04:12:49;101394.19;;;16.90;73.75
13593;BME280;6867;50.998;4.250;2022-10-30T04:15:16;101397.63;;;16.85;73.82
13593;BME280;6867;50.998;4.250;2022-10-30T04:17:47;101391.50;;;16.90;73.76
13593;BME280;6867;50.998;4.250;2022-10-30T04:20:14;101383.69;;;16.82;73.69
13593;BME280;6867;50.998;4.250;2022-10-30T04:22:43;101384.16;;;16.79;73.80
13593;BME280;6867;50.998;4.250;2022-10-30T04:25:10;101396.38;;;16.69;73.84
13593;BME280;6867;50.998;4.250;2022-10-30T04:27:39;101399.88;;;16.58;73.69
13593;BME280;6867;50.998;4.250;2022-10-30T04:30:07;101396.34;;;16.58;74.05
13593;BME280;6867;50.998;4.250;2022-10-30T04:32:34;101409.16;;;16.51;74.29
13593;BME280;6867;50.998;4.250;2022-10-30T04:35:01;101401.03;;;16.51;74.20
13593;BME280;6867;50.998;4.250;2022-10-30T04:37:28;101400.09;;;16.45;74.19
13593;BME280;6867;50.998;4.250;2022-10-30T04:39:58;101402.88;;;16.38;74.37
13593;BME280;6867;50.998;4.250;2022-10-30T04:42:25;101407.47;;;16.26;74.54
13593;BME280;6867;50.998;4.250;2022-10-30T04:44:51;101404.00;;;16.19;74.68
13593;BME280;6867;50.998;4.250;2022-10-30T04:47:18;101401.16;;;16.14;74.67
13593;BME280;6867;50.998;4.250;2022-10-30T04:49:45;101401.16;;;16.14;74.81
13593;BME280;6867;50.998;4.250;2022-10-30T04:52:11;101408.69;;;16.12;75.08
13593;BME280;6867;50.998;4.250;2022-10-30T04:54:38;101410.81;;;16.10;75.36
13593;BME280;6867;50.998;4.250;2022-10-30T04:57:06;101413.28;;;16.11;75.15
13593;BME280;6867;50.998;4.250;2022-10-30T04:59:33;101401.47;;;16.06;75.07
13593;BME280;6867;50.998;4.250;2022-10-30T05:02:00;101398.97;;;16.04;75.44
13593;BME280;6867;50.998;4.250;2022-10-30T05:04:27;101407.78;;;16.00;75.24
13593;BME280;6867;50.998;4.250;2022-10-30T05:06:53;101414.13;;;15.93;75.64
13593;BME280;6867;50.998;4.250;2022-10-30T05:09:20;101406.91;;;15.87;75.54
13593;BME280;6867;50.998;4.250;2022-10-30T05:11:46;101406.53;;;15.84;75.44
13593;BME280;6867;50.998;4.250;2022-10-30T05:14:14;101404.66;;;15.84;75.87
13593;BME280;6867;50.998;4.250;2022-10-30T05:16:41;101401.88;;;15.91;75.92
13593;BME280;6867;50.998;4.250;2022-10-30T05:19:08;101406.91;;;15.87;75.93
13593;BME280;6867;50.998;4.250;2022-10-30T05:21:35;101399.53;;;15.94;75.88
13593;BME280;6867;50.998;4.250;2022-10-30T05:24:02;101394.25;;;16.00;75.48
13593;BME280;6867;50.998;4.250;2022-10-30T05:26:28;101396.75;;;16.01;75.43
13593;BME280;6867;50.998;4.250;2022-10-30T05:28:55;101386.66;;;15.90;75.53
13593;BME280;6867;50.998;4.250;2022-10-30T05:31:23;101385.16;;;15.94;75.70
13593;BME280;6867;50.998;4.250;2022-10-30T05:33:50;101376.22;;;15.93;75.44
13593;BME280;6867;50.998;4.250;2022-10-30T05:36:16;101374.53;;;15.92;75.50
13593;BME280;6867;50.998;4.250;2022-10-30T05:38:43;101372.75;;;15.86;75.71
13593;BME280;6867;50.998;4.250;2022-10-30T05:41:10;101357.03;;;15.77;75.00
13593;BME280;6867;50.998;4.250;2022-10-30T05:43:37;101355.47;;;15.69;75.17
13593;BME280;6867;50.998;4.250;2022-10-30T05:46:04;101372.00;;;15.61;75.41
13593;BME280;6867;50.998;4.250;2022-10-30T05:48:32;101355.91;;;15.66;74.95
13593;BME280;6867;50.998;4.250;2022-10-30T05:51:00;101373.63;;;15.62;75.24
13593;BME280;6867;50.998;4.250;2022-10-30T05:53:28;101371.53;;;15.64;75.05
13593;BME280;6867;50.998;4.250;2022-10-30T05:55:57;101366.44;;;15.56;74.94
13593;BME280;6867;50.998;4.250;2022-10-30T05:58:24;101360.25;;;15.49;74.92
13593;BME280;6867;50.998;4.250;2022-10-30T06:00:51;101371.78;;;15.44;75.24
13593;BME280;6867;50.998;4.250;2022-10-30T06:03:18;101372.34;;;15.46;75.61
13593;BME280;6867;50.998;4.250;2022-10-30T06:05:46;101378.16;;;15.50;75.43
13593;BME280;6867;50.998;4.250;2022-10-30T06:08:15;101369.19;;;15.49;75.32
13593;BME280;6867;50.998;4.250;2022-10-30T06:10:42;101372.66;;;15.56;75.42
13593;BME280;6867;50.998;4.250;2022-10-30T06:13:09;101372.28;;;15.53;75.81
13593;BME280;6867;50.998;4.250;2022-10-30T06:15:36;101380.78;;;15.56;75.86
13593;BME280;6867;50.998;4.250;2022-10-30T06:18:03;101378.47;;;15.60;75.58
13593;BME280;6867;50.998;4.250;2022-10-30T06:20:29;101375.97;;;15.58;75.61
13593;BME280;6867;50.998;4.250;2022-10-30T06:22:59;101379.28;;;15.60;75.99
13593;BME280;6867;50.998;4.250;2022-10-30T06:25:26;101368.47;;;15.60;75.68
13593;BME280;6867;50.998;4.250;2022-10-30T06:27:53;101365.97;;;15.59;75.60
13593;BME280;6867;50.998;4.250;2022-10-30T06:30:20;101370.09;;;15.61;75.83
13593;BME280;6867;50.998;4.250;2022-10-30T06:32:47;101371.53;;;15.64;75.51
13593;BME280;6867;50.998;4.250;2022-10-30T06:35:14;101368.84;;;15.64;75.75
13593;BME280;6867;50.998;4.250;2022-10-30T06:37:44;101371.84;;;15.74;75.83
13593;BME280;6867;50.998;4.250;2022-10-30T06:40:12;101372.69;;;15.75;76.18
13593;BME280;6867;50.998;4.250;2022-10-30T06:42:43;101371.63;;;15.76;75.88
13593;BME280;6867;50.998;4.250;2022-10-30T06:45:10;101378.72;;;15.77;76.25
13593;BME280;6867;50.998;4.250;2022-10-30T06:47:38;101369.91;;;15.81;76.22
13593;BME280;6867;50.998;4.250;2022-10-30T06:50:07;101374.41;;;15.87;75.93
13593;BME280;6867;50.998;4.250;2022-10-30T06:52:34;101373.94;;;15.90;76.37
13593;BME280;6867;50.998;4.250;2022-10-30T06:55:01;101369.34;;;15.91;76.29
13593;BME280;6867;50.998;4.250;2022-10-30T06:57:29;101374.84;;;16.03;76.33
13593;BME280;6867;50.998;4.250;2022-10-30T06:59:56;101376.25;;;16.05;76.30
13593;BME280;6867;50.998;4.250;2022-10-30T07:02:23;101380.38;;;16.08;76.28
13593;BME280;6867;50.998;4.250;2022-10-30T07:04:50;101373.00;;;16.15;76.15
13593;BME280;6867;50.998;4.250;2022-10-30T07:07:16;101385.78;;;16.26;76.14
13593;BME280;6867;50.998;4.250;2022-10-30T07:09:43;101385.28;;;16.29;76.09
13593;BME280;6867;50.998;4.250;2022-10-30T07:12:11;101388.03;;;16.41;76.13
13593;BME280;6867;50.998;4.250;2022-10-30T07:14:39;101384.75;;;16.51;76.33
13593;BME280;6867;50.998;4.250;2022-10-30T07:17:05;101383.97;;;16.62;76.40
13593;BME280;6867;50.998;4.250;2022-10-30T07:19:32;101383.22;;;16.73;76.61
13593;BME280;6867;50.998;4.250;2022-10-30T07:21:59;101383.22;;;16.85;76.68
13593;BME280;6867;50.998;4.250;2022-10-30T07:24:26;101391.00;;;17.05;76.37
13593;BME280;6867;50.998;4.250;2022-10-30T07:26:53;101385.84;;;17.15;76.17
13593;BME280;6867;50.998;4.250;2022-10-30T07:29:20;101376.97;;;17.31;75.18
13593;BME280;6867;50.998;4.250;2022-10-30T07:31:48;101373.91;;;17.39;74.77
13593;BME280;6867;50.998;4.250;2022-10-30T07:34:15;101371.66;;;17.36;74.72
13593;BME280;6867;50.998;4.250;2022-10-30T07:36:42;101382.50;;;17.36;74.45
13593;BME280;6867;50.998;4.250;2022-10-30T07:39:08;101394.19;;;17.49;74.41
13593;BME280;6867;50.998;4.250;2022-10-30T07:41:35;101392.38;;;17.66;74.26
13593;BME280;6867;50.998;4.250;2022-10-30T07:44:02;101390.50;;;17.66;74.12
13593;BME280;6867;50.998;4.250;2022-10-30T07:46:28;101383.41;;;17.77;73.93
13593;BME280;6867;50.998;4.250;2022-10-30T07:48:56;101393.03;;;17.97;73.80
13593;BME280;6867;50.998;4.250;2022-10-30T07:51:23;101390.38;;;18.13;73.50
13593;BME280;6867;50.998;4.250;2022-10-30T07:53:50;101397.59;;;18.36;73.04
13593;BME280;6867;50.998;4.250;2022-10-30T07:56:17;101388.47;;;18.59;73.25
13593;BME280;6867;50.998;4.250;2022-10-30T07:58:43;101382.09;;;18.82;72.27
13593;BME280;6867;50.998;4.250;2022-10-30T08:01:10;101380.19;;;19.00;71.89
13593;BME280;6867;50.998;4.250;2022-10-30T08:03:37;101378.44;;;19.27;71.52
13593;BME280;6867;50.998;4.250;2022-10-30T08:06:05;101380.69;;;19.52;71.26
13593;BME280;6867;50.998;4.250;2022-10-30T08:08:32;101368.66;;;19.70;70.56
13593;BME280;6867;50.998;4.250;2022-10-30T08:10:59;101354.69;;;19.88;70.25
13593;BME280;6867;50.998;4.250;2022-10-30T08:13:25;101353.78;;;20.05;69.65
13593;BME280;6867;50.998;4.250;2022-10-30T08:15:52;101356.09;;;20.18;69.32
13593;BME280;6867;50.998;4.250;2022-10-30T08:18:19;101342.81;;;20.27;68.90
13593;BME280;6867;50.998;4.250;2022-10-30T08:20:47;101350.88;;;20.44;68.51
13593;BME280;6867;50.998;4.250;2022-10-30T08:23:16;101357.59;;;20.58;68.21
13593;BME280;6867;50.998;4.250;2022-10-30T08:25:44;101350.88;;;20.71;68.00
13593;BME280;6867;50.998;4.250;2022-10-30T08:28:11;101340.19;;;20.69;67.05
13593;BME280;6867;50.998;4.250;2022-10-30T08:30:38;101327.44;;;20.75;66.27
13593;BME280;6867;50.998;4.250;2022-10-30T08:33:09;101333.22;;;20.83;66.05
13593;BME280;6867;50.998;4.250;2022-10-30T08:35:35;101323.28;;;20.67;65.35
13593;BME280;6867;50.998;4.250;2022-10-30T08:38:02;101341.69;;;20.82;65.32
13593;BME280;6867;50.998;4.250;2022-10-30T08:40:31;101337.34;;;20.86;64.78
13593;BME280;6867;50.998;4.250;2022-10-30T08:42:57;101327.47;;;20.80;64.74
13593;BME280;6867;50.998;4.250;2022-10-30T08:45:24;101337.84;;;20.78;64.70
13593;BME280;6867;50.998;4.250;2022-10-30T08:47:58;101339.72;;;20.77;64.82
13593;BME280;6867;50.998;4.250;2022-10-30T08:50:25;101353.47;;;20.55;65.17
13593;BME280;6867;50.998;4.250;2022-10-30T08:52:52;101368.31;;;20.37;66.26
13593;BME280;6867;50.998;4.250;2022-10-30T08:55:18;101357.06;;;20.34;66.52
13593;BME280;6867;50.998;4.250;2022-10-30T08:57:46;101360.63;;;20.34;66.69
13593;BME280;6867;50.998;4.250;2022-10-30T09:00:13;101350.59;;;20.40;66.55
13593;BME280;6867;50.998;4.250;2022-10-30T09:02:40;101349.75;;;20.39;66.56
13593;BME280;6867;50.998;4.250;2022-10-30T09:05:08;101363.47;;;20.45;66.58
13593;BME280;6867;50.998;4.250;2022-10-30T09:07:35;101356.44;;;20.49;66.39
13593;BME280;6867;50.998;4.250;2022-10-30T09:10:02;101362.31;;;20.68;66.37
13593;BME280;6867;50.998;4.250;2022-10-30T09:12:29;101348.47;;;20.79;65.85
13593;BME280;6867;50.998;4.250;2022-10-30T09:14:57;101339.28;;;20.91;65.02
13593;BME280;6867;50.998;4.250;2022-10-30T09:17:24;101335.91;;;21.16;64.26
13593;BME280;6867;50.998;4.250;2022-10-30T09:19:51;101336.09;;;21.51;63.74
13593;BME280;6867;50.998;4.250;2022-10-30T09:22:18;101323.28;;;21.62;62.92
13593;BME280;6867;50.998;4.250;2022-10-30T09:24:44;101308.28;;;21.75;62.38
13593;BME280;6867;50.998;4.250;2022-10-30T09:27:12;101302.53;;;21.76;62.05
13593;BME280;6867;50.998;4.250;2022-10-30T09:29:39;101284.16;;;21.51;61.61
13593;BME280;6867;50.998;4.250;2022-10-30T09:32:08;101288.88;;;21.71;61.62
13593;BME280;6867;50.998;4.250;2022-10-30T09:34:35;101285.91;;;21.83;61.15
13593;BME280;6867;50.998;4.250;2022-10-30T09:37:02;101285.06;;;21.82;60.74
13593;BME280;6867;50.998;4.250;2022-10-30T09:39:29;101287.53;;;21.84;60.61
13593;BME280;6867;50.998;4.250;2022-10-30T09:42:12;101291.38;;;21.83;60.56
13593;BME280;6867;50.998;4.250;2022-10-30T09:44:52;101297.06;;;21.66;60.68
13593;BME280;6867;50.998;4.250;2022-10-30T09:47:31;101294.84;;;21.58;60.60
13593;BME280;6867;50.998;4.250;2022-10-30T09:50:12;101291.25;;;21.47;60.97
13593;BME280;6867;50.998;4.250;2022-10-30T09:52:51;101290.72;;;21.55;60.87
13593;BME280;6867;50.998;4.250;2022-10-30T09:55:29;101287.75;;;21.67;60.72
13593;BME280;6867;50.998;4.250;2022-10-30T09:58:10;101303.06;;;21.63;61.26
13593;BME280;6867;50.998;4.250;2022-10-30T10:00:43;101300.91;;;21.75;60.94
13593;BME280;6867;50.998;4.250;2022-10-30T10:03:23;101305.56;;;21.80;60.89
13593;BME280;6867;50.998;4.250;2022-10-30T10:05:56;101306.97;;;21.87;60.78
13593;BME280;6867;50.998;4.250;2022-10-30T10:08:29;101309.69;;;21.93;60.89
13593;BME280;6867;50.998;4.250;2022-10-30T10:11:01;101293.28;;;22.03;60.93
13593;BME280;6867;50.998;4.250;2022-10-30T10:13:32;101296.09;;;22.33;59.92
13593;BME280;6867;50.998;4.250;2022-10-30T10:16:09;101283.50;;;22.58;59.09
13593;BME280;6867;50.998;4.250;2022-10-30T10:18:42;101250.09;;;22.51;58.19
13593;BME280;6867;50.998;4.250;2022-10-30T10:21:20;101262.69;;;22.67;58.08
13593;BME280;6867;50.998;4.250;2022-10-30T10:23:49;101249.22;;;22.81;57.06
13593;BME280;6867;50.998;4.250;2022-10-30T10:26:25;101248.63;;;23.04;56.77
13593;BME280;6867;50.998;4.250;2022-10-30T10:29:06;101252.78;;;22.92;56.99
13593;BME280;6867;50.998;4.250;2022-10-30T10:31:42;101234.94;;;23.04;56.14
13593;BME280;6867;50.998;4.250;2022-10-30T10:34:30;101215.44;;;23.16;55.40
13593;BME280;6867;50.998;4.250;2022-10-30T10:37:08;101212.34;;;23.28;54.76
13593;BME280;6867;50.998;4.250;2022-10-30T10:39:47;101210.41;;;23.33;54.83
13593;BME280;6867;50.998;4.250;2022-10-30T10:42:24;101205.34;;;23.56;54.63
13593;BME280;6867;50.998;4.250;2022-10-30T10:45:11;101209.41;;;23.64;54.84
13593;BME280;6867;50.998;4.250;2022-10-30T10:51:00;101233.28;;;23.63;55.15
13593;BME280;6867;50.998;4.250;2022-10-30T10:53:35;101223.16;;;23.58;54.72
13593;BME280;6867;50.998;4.250;2022-10-30T10:56:04;101209.03;;;23.80;54.21
13593;BME280;6867;50.998;4.250;2022-10-30T10:58:35;101204.13;;;24.11;53.25
13593;BME280;6867;50.998;4.250;2022-10-30T11:01:08;101203.22;;;24.21;52.95
13593;BME280;6867;50.998;4.250;2022-10-30T11:03:46;101185.94;;;24.21;52.01
13593;BME280;6867;50.998;4.250;2022-10-30T11:06:20;101209.25;;;24.52;52.39
13593;BME280;6867;50.998;4.250;2022-10-30T11:08:48;101178.94;;;24.63;51.69
13593;BME280;6867;50.998;4.250;2022-10-30T11:11:17;101194.19;;;24.50;52.27
13593;BME280;6867;50.998;4.250;2022-10-30T11:13:44;101161.59;;;24.67;51.22
13593;BME280;6867;50.998;4.250;2022-10-30T11:16:19;101175.16;;;25.01;50.81
13593;BME280;6867;50.998;4.250;2022-10-30T11:18:51;101201.31;;;24.99;51.58
13593;BME280;6867;50.998;4.250;2022-10-30T11:21:21;101202.13;;;24.99;51.60
13593;BME280;6867;50.998;4.250;2022-10-30T11:23:49;101193.44;;;24.92;51.23
13593;BME280;6867;50.998;4.250;2022-10-30T11:26:30;101175.66;;;24.84;50.85
13593;BME280;6867;50.998;4.250;2022-10-30T11:29:02;101202.88;;;25.05;51.14
13593;BME280;6867;50.998;4.250;2022-10-30T11:31:30;101205.66;;;24.81;51.99
13593;BME280;6867;50.998;4.250;2022-10-30T11:34:13;101203.22;;;24.98;51.45
13593;BME280;6867;50.998;4.250;2022-10-30T11:36:42;101191.28;;;25.08;51.24
13593;BME280;6867;50.998;4.250;2022-10-30T11:39:10;101148.09;;;25.14;50.00
13593;BME280;6867;50.998;4.250;2022-10-30T11:41:38;101163.59;;;25.04;50.74
13593;BME280;6867;50.998;4.250;2022-10-30T11:44:05;101155.00;;;25.11;50.17
13593;BME280;6867;50.998;4.250;2022-10-30T11:46:33;101170.41;;;25.31;50.42
13593;BME280;6867;50.998;4.250;2022-10-30T11:49:01;101156.81;;;25.21;50.43
13593;BME280;6867;50.998;4.250;2022-10-30T11:51:34;101167.41;;;25.08;50.37
13593;BME280;6867;50.998;4.250;2022-10-30T11:54:03;101142.94;;;25.07;50.21
13593;BME280;6867;50.998;4.250;2022-10-30T11:56:31;101128.56;;;24.91;49.98
13593;BME280;6867;50.998;4.250;2022-10-30T11:59:01;101149.19;;;24.70;50.89
13593;BME280;6867;50.998;4.250;2022-10-30T12:01:30;101145.28;;;24.95;49.94
13593;BME280;6867;50.998;4.250;2022-10-30T12:04:13;101148.75;;;25.05;50.19
13593;BME280;6867;50.998;4.250;2022-10-30T12:06:40;101160.72;;;24.91;50.62
13593;BME280;6867;50.998;4.250;2022-10-30T12:09:12;101173.00;;;24.98;50.65
13593;BME280;6867;50.998;4.250;2022-10-30T12:11:40;101173.16;;;24.88;51.23
13593;BME280;6867;50.998;4.250;2022-10-30T12:14:19;101160.00;;;25.09;50.36
13593;BME280;6867;50.998;4.250;2022-10-30T12:16:48;101133.66;;;25.03;49.88
13593;BME280;6867;50.998;4.250;2022-10-30T12:19:17;101147.94;;;25.24;49.98
13593;BME280;6867;50.998;4.250;2022-10-30T12:21:46;101144.91;;;25.44;49.59
13593;BME280;6867;50.998;4.250;2022-10-30T12:24:18;101140.25;;;25.02;50.04
13593;BME280;6867;50.998;4.250;2022-10-30T12:26:48;101159.34;;;25.17;50.51
13593;BME280;6867;50.998;4.250;2022-10-30T12:29:18;101179.78;;;25.06;51.16
13593;BME280;6867;50.998;4.250;2022-10-30T12:31:52;101139.75;;;25.56;49.43
13593;BME280;6867;50.998;4.250;2022-10-30T12:34:33;101162.88;;;25.37;50.40
13593;BME280;6867;50.998;4.250;2022-10-30T12:37:07;101174.63;;;25.80;49.78
13593;BME280;6867;50.998;4.250;2022-10-30T12:39:44;101161.31;;;25.68;49.35
13593;BME280;6867;50.998;4.250;2022-10-30T12:42:15;101186.69;;;25.46;50.23
13593;BME280;6867;50.998;4.250;2022-10-30T12:44:45;101161.13;;;25.46;49.95
13593;BME280;6867;50.998;4.250;2022-10-30T12:47:19;101183.53;;;25.53;50.17
13593;BME280;6867;50.998;4.250;2022-10-30T12:49:50;101145.13;;;25.29;49.17
13593;BME280;6867;50.998;4.250;2022-10-30T12:52:21;101164.38;;;25.48;49.92
13593;BME280;6867;50.998;4.250;2022-10-30T12:54:57;101165.88;;;25.21;50.44
13593;BME280;6867;50.998;4.250;2022-10-30T12:57:28;101166.75;;;25.36;50.34
13593;BME280;6867;50.998;4.250;2022-10-30T13:00:01;101166.44;;;25.56;49.94
13593;BME280;6867;50.998;4.250;2022-10-30T13:02:38;101168.38;;;25.37;50.15
13593;BME280;6867;50.998;4.250;2022-10-30T13:05:18;101140.66;;;25.33;49.45
13593;BME280;6867;50.998;4.250;2022-10-30T13:07:53;101166.59;;;25.27;50.14
13593;BME280;6867;50.998;4.250;2022-10-30T13:10:29;101162.44;;;25.11;50.15
13593;BME280;6867;50.998;4.250;2022-10-30T13:13:02;101160.31;;;25.02;50.01
13593;BME280;6867;50.998;4.250;2022-10-30T13:15:32;101160.97;;;25.18;49.65
13593;BME280;6867;50.998;4.250;2022-10-30T13:18:12;101137.94;;;25.14;49.23